Time;durP1;ratioP1;P1;durP2;ratioP2;P2;SDS_P1;SDS_P2;PMS_P1;PMS_P2;Temp;Humidity;BMP_temperature;BMP_pressure;BME280_temperature;BME280_humidity;BME280_pressure;Samples;Min_cycle;Max_cycle;Signal;HPM_P1;HPM_P2
2022/04/04 00:01:06;;;;;;;3.63;2.50;;;;;;;4.87;27.74;98001.66;5096103;28;20482;-65
2022/04/04 00:03:31;;;;;;;3.60;2.10;;;;;;;4.90;28.14;98004.78;5062714;28;20043;-65
2022/04/04 00:05:57;;;;;;;3.43;2.33;;;;;;;4.93;27.77;98012.34;5079454;28;20043;-64
2022/04/04 00:08:23;;;;;;;3.60;2.47;;;;;;;4.92;27.88;98005.41;5095959;28;20040;-65
2022/04/04 00:10:49;;;;;;;3.87;2.37;;;;;;;4.92;27.77;98012.50;5096878;28;20035;-64
2022/04/04 00:13:15;;;;;;;2.73;2.10;;;;;;;4.86;27.80;98005.25;5112744;28;20039;-64
2022/04/04 00:15:41;;;;;;;5.57;2.60;;;;;;;4.79;27.65;98010.34;5095744;28;20047;-65
2022/04/04 00:18:08;;;;;;;5.87;2.53;;;;;;;4.89;27.77;98015.44;5095884;28;20039;-65
2022/04/04 00:20:34;;;;;;;3.97;2.57;;;;;;;4.67;28.41;97982.72;5112835;28;20044;-65
2022/04/04 00:23:00;;;;;;;3.83;2.33;;;;;;;4.81;28.12;98013.63;5096207;28;20053;-65
2022/04/04 00:25:26;;;;;;;3.23;2.43;;;;;;;4.65;27.79;97986.47;5096029;28;20032;-65
2022/04/04 00:27:51;;;;;;;2.67;2.30;;;;;;;4.79;28.32;98015.59;5095313;28;20039;-65
2022/04/04 00:30:17;;;;;;;5.53;2.83;;;;;;;4.85;27.58;98024.66;5078667;28;20074;-64
2022/04/04 00:32:43;;;;;;;11.70;2.70;;;;;;;4.84;27.63;98023.81;5113739;28;20043;-64
2022/04/04 00:35:09;;;;;;;3.50;2.67;;;;;;;4.91;27.96;98026.63;5061822;28;20119;-65
2022/04/04 00:37:37;;;;;;;3.00;2.40;;;;;;;4.90;27.70;98023.19;5078567;28;20405;-64
2022/04/04 00:40:05;;;;;;;3.80;2.30;;;;;;;5.03;27.68;98022.69;5112713;28;20048;-64
2022/04/04 00:42:31;;;;;;;7.43;2.67;;;;;;;4.84;27.53;98029.06;5112503;28;20039;-64
2022/04/04 00:44:57;;;;;;;3.83;2.40;;;;;;;4.84;28.00;98025.63;5095306;28;20557;-65
2022/04/04 00:47:23;;;;;;;4.43;2.50;;;;;;;4.79;27.48;98034.00;5093971;28;20667;-65
2022/04/04 00:49:49;;;;;;;3.83;2.50;;;;;;;4.80;27.45;98027.75;5111149;28;20480;-65
2022/04/04 00:52:15;;;;;;;2.93;2.53;;;;;;;4.77;27.49;98027.25;5094074;28;20047;-64
2022/04/04 00:54:41;;;;;;;5.20;2.50;;;;;;;4.77;28.37;98024.63;5111815;28;20134;-65
2022/04/04 00:57:06;;;;;;;5.67;2.90;;;;;;;4.84;28.86;98029.06;5095202;28;20134;-65
2022/04/04 01:00:12;;;;;;;4.80;3.00;;;;;;;5.18;28.70;98029.78;5112327;28;20040;-64
2022/04/04 01:02:39;;;;;;;4.23;2.70;;;;;;;5.01;28.86;98033.38;5110398;28;20464;-64
2022/04/04 01:05:06;;;;;;;5.00;2.77;;;;;;;4.97;28.13;98036.50;5094919;28;20039;-68
2022/04/04 01:07:32;;;;;;;6.77;2.93;;;;;;;4.82;28.97;98003.94;5112080;28;20092;-64
2022/04/04 01:09:58;;;;;;;6.43;3.10;;;;;;;4.77;28.40;98032.50;5111791;28;20046;-64
2022/04/04 01:12:24;;;;;;;4.30;2.70;;;;;;;4.61;27.83;98037.75;5111731;28;20190;-64
2022/04/04 01:14:49;;;;;;;5.80;3.30;;;;;;;4.81;27.86;98029.41;5111657;28;20532;-64
2022/04/04 01:17:21;;;;;;;4.57;3.00;;;;;;;4.98;28.00;98031.06;5111934;28;20381;-65
2022/04/04 01:19:47;;;;;;;7.20;3.37;;;;;;;4.68;28.13;98036.94;5061588;28;20128;-64
2022/04/04 01:22:14;;;;;;;8.07;3.43;;;;;;;4.82;28.12;98035.50;5077615;28;20444;-64
2022/04/04 01:24:42;;;;;;;7.67;3.13;;;;;;;4.88;27.43;98032.22;5112726;28;20047;-65
2022/04/04 01:27:09;;;;;;;6.17;3.50;;;;;;;4.77;28.41;98001.78;5078173;28;20040;-66
2022/04/04 01:29:36;;;;;;;7.83;3.33;;;;;;;4.98;28.27;98031.06;5079633;28;20046;-64
2022/04/04 01:32:03;;;;;;;6.77;4.07;;;;;;;4.92;28.22;98044.06;5095650;28;20059;-65
2022/04/04 01:34:31;;;;;;;9.03;3.70;;;;;;;4.78;29.21;98037.59;5095402;28;20542;-65
2022/04/04 01:36:57;;;;;;;7.73;3.67;;;;;;;4.58;29.45;98036.22;5094883;28;20651;-65
2022/04/04 01:39:23;;;;;;;6.77;3.97;;;;;;;4.45;29.84;98024.53;5094125;28;20122;-65
2022/04/04 01:41:50;;;;;;;10.20;4.33;;;;;;;4.48;30.59;98048.69;5110961;28;20046;-64
2022/04/04 01:44:16;;;;;;;11.07;4.10;;;;;;;4.43;30.57;98043.09;5094387;28;20415;-65
2022/04/04 01:46:41;;;;;;;7.80;4.37;;;;;;;4.44;30.21;98043.91;5093995;28;20039;-65
2022/04/04 01:49:08;;;;;;;8.90;3.70;;;;;;;4.41;30.02;98045.03;5111298;28;20496;-64
2022/04/04 01:51:35;;;;;;;8.60;4.20;;;;;;;4.50;30.07;98059.88;5077758;28;20050;-65
2022/04/04 01:54:01;;;;;;;7.67;3.90;;;;;;;4.37;30.57;98056.03;5094299;28;20493;-65
2022/04/04 01:56:28;;;;;;;9.00;4.20;;;;;;;4.42;30.76;98061.63;5094307;28;20142;-64
2022/04/04 01:58:54;;;;;;;12.63;4.00;;;;;;;4.34;30.53;98066.84;5077774;28;20045;-65
2022/04/04 02:01:23;;;;;;;5.67;3.30;;;;;;;4.36;31.07;98030.75;5060146;28;20039;-65
2022/04/04 02:03:50;;;;;;;5.93;3.47;;;;;;;4.49;31.00;98063.47;5110665;28;20043;-65
2022/04/04 02:06:18;;;;;;;6.67;3.80;;;;;;;4.32;30.22;98038.09;5076889;28;20558;-65
2022/04/04 02:08:44;;;;;;;6.30;3.53;;;;;;;4.50;30.83;98065.16;5093253;28;20051;-65
2022/04/04 02:11:10;;;;;;;5.33;3.33;;;;;;;4.47;31.30;98051.50;5076592;28;20442;-65
2022/04/04 02:13:37;;;;;;;6.83;3.37;;;;;;;4.52;31.12;98071.03;5110323;28;20043;-65
2022/04/04 02:16:04;;;;;;;7.07;4.00;;;;;;;4.56;31.05;98068.94;5094304;28;20075;-64
2022/04/04 02:18:30;;;;;;;7.37;3.90;;;;;;;4.56;31.45;98067.13;5092569;28;20980;-65
2022/04/04 02:20:56;;;;;;;6.63;3.70;;;;;;;4.47;31.16;98077.78;5075487;28;20400;-65
2022/04/04 02:23:22;;;;;;;7.30;3.93;;;;;;;4.34;31.45;98048.47;5091457;28;20051;-66
2022/04/04 02:25:50;;;;;;;5.87;3.40;;;;;;;4.59;31.30;98071.25;5108735;28;20477;-65
2022/04/04 02:28:17;;;;;;;5.97;3.70;;;;;;;4.64;31.47;98079.47;5108803;28;20050;-65
2022/04/04 02:30:44;;;;;;;5.33;3.17;;;;;;;4.62;30.31;98076.19;5110150;28;20043;-64
2022/04/04 02:33:15;;;;;;;11.37;3.27;;;;;;;4.57;31.02;98074.03;5092287;28;20142;-65
2022/04/04 02:35:41;;;;;;;5.55;3.13;;;;;;;4.50;30.33;98087.97;5109682;28;20112;-64
2022/04/04 02:38:08;;;;;;;7.00;3.40;;;;;;;4.57;30.59;98083.72;5110140;28;20521;-65
2022/04/04 02:40:34;;;;;;;6.37;3.10;;;;;;;4.29;30.19;98063.91;5109792;28;20038;-64
2022/04/04 02:43:02;;;;;;;6.33;3.10;;;;;;;4.50;30.33;98095.84;5109827;28;21033;-65
2022/04/04 02:45:29;;;;;;;9.93;3.70;;;;;;;4.34;31.14;98069.47;5092519;28;20093;-64
2022/04/04 02:47:54;;;;;;;5.07;3.00;;;;;;;4.46;30.77;98091.91;5092915;28;20133;-64
2022/04/04 02:50:20;;;;;;;6.73;3.67;;;;;;;4.54;31.07;98097.16;5109743;28;20040;-64
2022/04/04 02:52:47;;;;;;;7.53;3.50;;;;;;;4.47;31.30;98101.44;5075750;28;20513;-64
2022/04/04 02:57:57;;;;;;;6.97;3.97;;;;;;;4.54;30.91;98115.56;5078323;28;20039;-64
2022/04/04 03:00:26;;;;;;;8.33;3.10;;;;;;;4.49;29.84;98112.63;5092553;28;20461;-64
2022/04/04 03:02:53;;;;;;;7.23;3.57;;;;;;;4.59;30.88;98116.78;5092885;28;20075;-65
2022/04/04 03:05:19;;;;;;;8.50;4.07;;;;;;;4.35;31.02;98094.81;5092456;28;20044;-64
2022/04/04 03:07:45;;;;;;;6.83;3.37;;;;;;;4.53;30.75;98120.03;5075569;28;20100;-65
2022/04/04 03:10:13;;;;;;;7.50;3.50;;;;;;;4.70;30.98;98116.50;5109518;28;20036;-64
2022/04/04 03:12:47;;;;;;;7.10;3.70;;;;;;;4.76;30.66;98117.66;5110950;28;20044;-64
2022/04/04 03:15:16;;;;;;;7.60;4.00;;;;;;;4.71;31.20;98125.19;5109538;28;20100;-68
2022/04/04 03:17:43;;;;;;;6.67;3.53;;;;;;;4.73;31.42;98118.81;5075774;28;20066;-64
2022/04/04 03:20:12;;;;;;;9.47;3.70;;;;;;;4.83;31.04;98129.16;5092771;28;20042;-64
2022/04/04 03:22:40;;;;;;;8.37;3.90;;;;;;;4.78;30.67;98128.84;5111330;28;20528;-64
2022/04/04 03:25:08;;;;;;;8.33;3.50;;;;;;;4.67;30.85;98129.13;5075959;28;20515;-64
2022/04/04 03:27:35;;;;;;;7.93;3.60;;;;;;;4.56;30.68;98111.00;5112580;28;20044;-64
2022/04/04 03:30:02;;;;;;;8.77;4.47;;;;;;;4.42;31.15;98101.06;5113520;28;20046;-64
2022/04/04 03:32:29;;;;;;;9.43;3.80;;;;;;;4.63;31.30;98131.22;5113435;28;20043;-64
2022/04/04 03:34:54;;;;;;;6.93;4.53;;;;;;;4.58;30.83;98145.84;5113197;28;20054;-64
2022/04/04 03:37:20;;;;;;;9.73;4.80;;;;;;;4.41;31.36;98113.38;5113342;28;20051;-64
2022/04/04 03:39:46;;;;;;;7.43;5.40;;;;;;;4.61;30.92;98137.66;5112979;28;20047;-64
2022/04/04 03:42:13;;;;;;;11.33;5.03;;;;;;;4.50;31.08;98106.38;5113507;28;20043;-64
2022/04/04 03:44:39;;;;;;;10.87;5.20;;;;;;;4.68;30.83;98134.22;5096305;28;20044;-64
2022/04/04 03:47:07;;;;;;;10.40;5.10;;;;;;;4.81;30.75;98134.59;5079692;28;20390;-64
2022/04/04 03:49:32;;;;;;;11.43;5.00;;;;;;;4.78;30.51;98145.44;5114193;28;20500;-64
2022/04/04 03:51:58;;;;;;;11.93;4.60;;;;;;;4.65;30.45;98113.50;5112825;28;20041;-64
2022/04/04 03:54:24;;;;;;;16.00;4.57;;;;;;;4.90;29.77;98151.25;5078733;28;20412;-64
2022/04/04 03:56:50;;;;;;;14.47;4.97;;;;;;;4.91;29.80;98158.13;5112714;28;20039;-64
2022/04/04 03:59:16;;;;;;;9.70;4.40;;;;;;;4.89;29.59;98152.22;5114038;28;20079;-66
2022/04/04 04:01:42;;;;;;;10.77;4.63;;;;;;;4.99;29.08;98153.75;5095837;28;20063;-64
2022/04/04 04:04:08;;;;;;;21.10;5.10;;;;;;;4.90;29.15;98159.97;5078538;28;20504;-65
2022/04/04 04:06:33;;;;;;;9.80;4.50;;;;;;;4.98;29.52;98161.81;5113502;28;20066;-64
2022/04/04 04:08:59;;;;;;;8.83;4.87;;;;;;;5.02;29.23;98168.38;5096112;28;20047;-64
2022/04/04 04:11:26;;;;;;;13.67;5.23;;;;;;;4.84;29.22;98109.78;5095794;28;20496;-66
2022/04/04 04:13:52;;;;;;;17.67;5.57;;;;;;;5.22;29.42;98165.34;5113863;28;20074;-64
2022/04/04 04:16:18;;;;;;;18.63;6.03;;;;;;;5.19;29.17;98156.94;5112621;28;20047;-65
2022/04/04 04:18:43;;;;;;;16.97;5.73;;;;;;;5.36;28.95;98166.53;5112390;28;20043;-65
2022/04/04 04:21:10;;;;;;;15.43;5.87;;;;;;;5.60;28.84;98163.91;5095329;28;20047;-64
2022/04/04 04:23:37;;;;;;;13.00;5.07;;;;;;;5.69;28.69;98167.41;5095813;28;20306;-65
2022/04/04 04:26:08;;;;;;;13.43;5.30;;;;;;;5.75;28.65;98159.66;5112425;28;20043;-64
2022/04/04 04:28:35;;;;;;;14.23;5.50;;;;;;;5.82;28.32;98165.13;5112243;28;20061;-64
2022/04/04 04:31:01;;;;;;;11.80;5.13;;;;;;;5.85;28.42;98170.91;5095342;28;20048;-64
2022/04/04 04:33:27;;;;;;;16.00;4.87;;;;;;;6.00;27.74;98173.69;5113441;28;20508;-66
2022/04/04 04:35:53;;;;;;;12.17;5.43;;;;;;;6.05;27.96;98169.59;5061618;28;20047;-64
2022/04/04 04:38:19;;;;;;;10.53;5.33;;;;;;;6.11;27.86;98176.81;5111786;28;20043;-64
2022/04/04 04:40:45;;;;;;;10.20;4.90;;;;;;;6.18;27.80;98172.53;5078360;28;20523;-63
2022/04/04 04:43:11;;;;;;;13.93;7.30;;;;;;;6.21;27.74;98177.47;5112236;28;20039;-64
2022/04/04 04:45:37;;;;;;;12.53;6.67;;;;;;;6.30;27.38;98173.03;5113512;28;20054;-63
2022/04/04 04:48:03;;;;;;;16.53;5.63;;;;;;;6.34;27.48;98172.53;5078255;28;20054;-63
2022/04/04 04:50:29;;;;;;;15.20;6.33;;;;;;;6.44;27.25;98185.53;5112989;28;20036;-64
2022/04/04 04:52:56;;;;;;;16.00;5.03;;;;;;;6.43;27.28;98160.97;5094549;28;20046;-64
2022/04/04 04:55:24;;;;;;;11.30;5.23;;;;;;;6.63;27.27;98187.78;5112805;28;20146;-64
2022/04/04 04:57:50;;;;;;;12.00;5.43;;;;;;;6.63;27.04;98185.16;5112644;28;20085;-64
2022/04/04 05:00:18;;;;;;;13.07;5.67;;;;;;;6.71;27.39;98183.31;5094673;28;20077;-64
2022/04/04 05:02:44;;;;;;;15.97;5.67;;;;;;;6.56;26.89;98179.75;5094579;28;20192;-64
2022/04/04 05:05:10;;;;;;;11.37;5.13;;;;;;;6.63;26.61;98187.78;5111374;28;20126;-65
2022/04/04 05:07:36;;;;;;;16.53;5.60;;;;;;;6.45;26.91;98155.53;5094426;28;20051;-64
2022/04/04 05:10:01;;;;;;;12.93;5.47;;;;;;;6.71;27.08;98185.13;5094681;28;20062;-64
2022/04/04 05:12:28;;;;;;;12.37;5.13;;;;;;;6.74;26.83;98183.00;5094324;28;20043;-64
2022/04/04 05:14:55;;;;;;;12.67;5.33;;;;;;;6.79;26.73;98179.84;5111582;28;20112;-64
2022/04/04 05:17:20;;;;;;;19.10;6.00;;;;;;;6.89;26.52;98183.91;5111067;28;20093;-65
2022/04/04 05:19:47;;;;;;;19.00;5.30;;;;;;;7.00;26.13;98190.66;5077234;28;20520;-64
2022/04/04 05:22:14;;;;;;;24.83;5.87;;;;;;;7.08;26.41;98189.78;5093966;28;20134;-64
2022/04/04 05:24:39;;;;;;;13.33;5.63;;;;;;;7.18;26.02;98185.13;5110896;28;20154;-62
2022/04/04 05:27:05;;;;;;;18.40;6.20;;;;;;;7.31;25.89;98196.78;5111120;28;20398;-66
2022/04/04 05:29:31;;;;;;;15.63;5.30;;;;;;;7.45;25.83;98201.34;5077138;28;20519;-65
2022/04/04 05:31:56;;;;;;;16.77;5.73;;;;;;;7.59;25.71;98189.19;5076822;28;20129;-67
2022/04/04 05:34:26;;;;;;;14.83;6.23;;;;;;;7.76;25.67;98183.66;5093923;28;20417;-69
2022/04/04 05:36:52;;;;;;;20.40;6.97;;;;;;;7.86;25.68;98183.41;5094164;28;20416;-70
2022/04/04 05:39:18;;;;;;;22.23;6.50;;;;;;;7.95;25.46;98192.94;5076942;28;20048;-70
2022/04/04 05:41:43;;;;;;;14.37;6.83;;;;;;;7.98;25.61;98192.59;5060107;28;20035;-68
2022/04/04 05:44:09;;;;;;;19.80;6.77;;;;;;;8.05;25.60;98191.69;5093690;28;20050;-68
2022/04/04 05:46:35;;;;;;;19.77;7.60;;;;;;;8.16;25.53;98198.38;5093759;28;20047;-67
2022/04/04 05:49:01;;;;;;;19.43;6.97;;;;;;;8.28;25.41;98189.88;5059686;28;20058;-67
2022/04/04 05:51:28;;;;;;;22.17;6.83;;;;;;;8.05;25.26;98132.69;5093347;28;20120;-66
2022/04/04 05:53:55;;;;;;;23.33;6.70;;;;;;;8.54;24.94;98203.53;5076666;28;20180;-68
2022/04/04 05:56:21;;;;;;;18.87;5.77;;;;;;;8.59;24.86;98205.63;5093834;28;20074;-69
2022/04/04 05:58:50;;;;;;;14.50;5.33;;;;;;;8.93;24.02;98205.13;5060234;28;20054;-68
2022/04/04 06:01:16;;;;;;;24.33;5.88;;;;;;;8.96;23.52;98204.75;5060177;28;20381;-68
2022/04/04 06:03:42;;;;;;;15.70;7.68;;;;;;;9.08;23.30;98197.97;5075794;28;20043;-67
2022/04/04 06:06:08;;;;;;;20.92;7.90;;;;;;;9.24;22.90;98188.00;5060094;28;20040;-67
2022/04/04 06:08:34;;;;;;;16.98;5.22;;;;;;;9.38;22.58;98191.66;5076559;28;20050;-69
2022/04/04 06:11:00;;;;;;;15.35;4.72;;;;;;;9.48;21.87;98189.53;5060309;28;20036;-70
2022/04/04 06:13:34;;;;;;;11.23;5.22;;;;;;;9.77;21.92;98198.22;5094711;28;20047;-66
2022/04/04 06:16:00;;;;;;;9.73;4.38;;;;;;;9.66;21.62;98195.22;5076201;28;20044;-69
2022/04/04 06:18:26;;;;;;;10.48;4.90;;;;;;;9.79;21.85;98198.84;5060095;28;20470;-69
2022/04/04 06:20:52;;;;;;;8.63;4.60;;;;;;;10.06;21.22;98192.81;5076467;28;20043;-69
2022/04/04 06:23:17;;;;;;;7.30;4.07;;;;;;;10.29;20.61;98192.63;5075192;28;20048;-68
2022/04/04 06:25:48;;;;;;;9.80;3.55;;;;;;;10.65;19.63;98197.81;5075706;28;20096;-67
2022/04/04 06:28:14;;;;;;;5.78;3.45;;;;;;;10.68;19.03;98200.91;5061027;28;20085;-71
2022/04/04 06:30:40;;;;;;;5.43;3.35;;;;;;;10.82;18.91;98200.00;5075768;28;20075;-68
2022/04/04 06:33:06;;;;;;;6.55;3.08;;;;;;;11.00;19.17;98197.66;5067220;28;20054;-68
2022/04/04 06:35:32;;;;;;;4.68;2.90;;;;;;;11.21;18.77;98205.53;5090937;28;20531;-71
2022/04/04 06:38:00;;;;;;;8.88;3.60;;;;;;;11.37;18.44;98204.38;5075363;28;20043;-70
2022/04/04 06:40:26;;;;;;;5.47;3.05;;;;;;;11.55;17.98;98204.66;5075577;28;20039;-67
2022/04/04 06:42:52;;;;;;;3.50;2.47;;;;;;;11.62;17.96;98208.19;5092490;28;20050;-69
2022/04/04 06:45:18;;;;;;;4.05;2.42;;;;;;;11.78;17.90;98208.66;5074516;28;20369;-72
2022/04/04 06:47:44;;;;;;;4.20;2.70;;;;;;;11.93;17.40;98210.34;5075086;28;20075;-71
2022/04/04 06:50:10;;;;;;;7.22;2.70;;;;;;;11.95;16.85;98200.34;5076351;28;20070;-69
2022/04/04 06:52:36;;;;;;;4.22;2.10;;;;;;;12.10;16.87;98207.09;5059476;28;20093;-69
2022/04/04 06:55:02;;;;;;;9.43;2.17;;;;;;;12.22;16.65;98200.19;5093006;28;20046;-68
2022/04/04 06:57:29;;;;;;;3.20;2.20;;;;;;;12.40;16.60;98207.53;5074306;28;20465;-69
2022/04/04 06:59:54;;;;;;;2.75;2.40;;;;;;;12.57;16.12;98176.81;5076083;28;20036;-68
2022/04/04 07:02:21;;;;;;;5.07;2.13;;;;;;;12.89;15.92;98199.94;5093092;28;20040;-69
2022/04/04 07:04:49;;;;;;;6.53;2.75;;;;;;;13.11;15.89;98193.38;5075591;28;20036;-68
2022/04/04 07:07:20;;;;;;;4.60;2.50;;;;;;;13.38;15.69;98202.94;5092596;28;20055;-68
2022/04/04 07:09:48;;;;;;;3.60;1.85;;;;;;;13.64;15.66;98207.34;5093643;28;20464;-70
2022/04/04 07:12:14;;;;;;;3.83;1.70;;;;;;;13.89;14.43;98202.91;5073489;28;20082;-71
2022/04/04 07:14:40;;;;;;;3.10;2.03;;;;;;;14.18;14.56;98205.00;5058005;28;20047;-69
2022/04/04 07:17:06;;;;;;;5.00;2.30;;;;;;;14.43;14.26;98198.69;5092991;28;20078;-69
2022/04/04 07:19:35;;;;;;;5.28;2.20;;;;;;;14.59;13.81;98198.13;5076228;28;20054;-69
2022/04/04 07:22:01;;;;;;;3.13;1.73;;;;;;;14.81;13.81;98206.59;5059148;28;20091;-69
2022/04/04 07:24:27;;;;;;;4.80;3.10;;;;;;;14.90;13.70;98208.75;5092579;28;20043;-75
2022/04/04 07:26:53;;;;;;;3.63;1.55;;;;;;;15.02;13.54;98200.84;5075954;28;20579;-69
2022/04/04 07:29:19;;;;;;;4.10;2.20;;;;;;;15.16;13.53;98200.47;5075762;28;20085;-68
2022/04/04 07:31:44;;;;;;;3.28;1.90;;;;;;;15.46;13.27;98200.59;5058783;28;20104;-68
2022/04/04 07:34:10;;;;;;;2.90;2.00;;;;;;;15.99;12.86;98193.50;5058742;28;20143;-68
2022/04/04 07:36:37;;;;;;;4.47;2.38;;;;;;;17.07;12.70;98196.78;5093513;28;20557;-70
2022/04/04 07:39:04;;;;;;;3.67;1.95;;;;;;;19.07;11.15;98194.41;5092651;28;20535;-67
2022/04/04 07:41:30;;;;;;;6.53;2.13;;;;;;;21.14;9.74;98194.56;5075257;28;20138;-67
2022/04/04 07:43:55;;;;;;;6.55;2.25;;;;;;;23.08;8.39;98200.84;5075800;28;20139;-68
2022/04/04 07:46:26;;;;;;;3.17;1.83;;;;;;;24.77;7.10;98205.03;5075461;28;20035;-68
2022/04/04 07:48:55;;;;;;;2.63;1.42;;;;;;;25.66;6.71;98193.59;5109375;28;20043;-68
2022/04/04 07:51:26;;;;;;;6.30;4.22;;;;;;;26.48;6.12;98163.91;5109493;28;20044;-69
2022/04/04 07:53:52;;;;;;;5.38;1.80;;;;;;;27.22;6.12;98186.66;5075638;28;20050;-67
2022/04/04 07:56:19;;;;;;;3.20;1.60;;;;;;;27.84;5.59;98192.31;5058723;28;20039;-67
2022/04/04 07:58:45;;;;;;;2.08;1.50;;;;;;;28.42;5.41;98192.44;5076051;28;20046;-68
2022/04/04 08:01:11;;;;;;;2.75;1.58;;;;;;;29.23;4.73;98175.69;5092465;28;20039;-70
2022/04/04 08:03:39;;;;;;;2.65;1.77;;;;;;;30.32;4.65;98185.78;5092330;28;20044;-71
2022/04/04 08:06:05;;;;;;;4.43;1.73;;;;;;;31.12;4.30;98192.19;5109176;28;20082;-70
2022/04/04 08:08:31;;;;;;;5.85;2.00;;;;;;;31.50;3.80;98166.78;5109101;28;20066;-69
2022/04/04 08:11:00;;;;;;;2.63;2.05;;;;;;;31.55;3.75;98180.31;5075905;28;20086;-69
2022/04/04 08:13:26;;;;;;;5.32;1.95;;;;;;;31.60;3.90;98180.94;5112153;28;20354;-70
2022/04/04 08:15:54;;;;;;;5.28;2.30;;;;;;;31.52;3.66;98178.25;5096110;28;20035;-70
2022/04/04 08:18:19;;;;;;;4.55;2.03;;;;;;;31.57;3.37;98167.88;5113129;28;20074;-71
2022/04/04 08:20:45;;;;;;;4.03;1.95;;;;;;;31.75;3.79;98169.44;5078652;28;20130;-70
2022/04/04 08:23:11;;;;;;;8.23;2.30;;;;;;;31.92;3.38;98171.31;5078614;28;20454;-70
2022/04/04 08:25:38;;;;;;;4.80;1.88;;;;;;;31.88;3.41;98160.16;5112258;28;20567;-70
2022/04/04 08:28:06;;;;;;;3.47;2.03;;;;;;;32.16;3.29;98171.47;5078560;28;20049;-70
2022/04/04 08:30:34;;;;;;;2.83;1.90;;;;;;;32.80;3.31;98174.72;5078739;28;20043;-70
2022/04/04 08:33:00;;;;;;;6.43;2.25;;;;;;;33.60;3.21;98166.59;5062056;28;20408;-71
2022/04/04 08:35:25;;;;;;;7.38;2.53;;;;;;;34.14;2.53;98164.41;5095747;28;20044;-70
2022/04/04 08:37:51;;;;;;;3.70;2.40;;;;;;;34.72;2.65;98168.56;5095463;28;20040;-69
2022/04/04 08:40:18;;;;;;;2.58;1.90;;;;;;;35.41;2.19;98171.69;5061656;28;20074;-69
2022/04/04 08:42:45;;;;;;;3.97;1.73;;;;;;;35.85;2.13;98169.66;5078743;28;20039;-69
2022/04/04 08:45:12;;;;;;;4.68;1.90;;;;;;;36.58;1.91;98159.53;5095005;28;20052;-72
2022/04/04 08:47:39;;;;;;;2.60;1.65;;;;;;;37.52;1.69;98157.03;5078536;28;20044;-73
2022/04/04 08:50:05;;;;;;;3.70;1.50;;;;;;;38.14;1.18;98160.06;5094976;28;20050;-72
2022/04/04 08:52:31;;;;;;;2.38;1.80;;;;;;;38.56;1.17;98157.91;5078277;28;20043;-71
2022/04/04 08:54:57;;;;;;;2.50;1.90;;;;;;;38.91;1.06;98157.53;5095674;28;20166;-72
2022/04/04 08:57:23;;;;;;;3.47;1.92;;;;;;;39.08;0.81;98161.72;5061585;28;20484;-73
2022/04/04 08:59:49;;;;;;;2.83;1.80;;;;;;;39.33;0.92;98155.25;5061641;28;20098;-73
2022/04/04 09:02:15;;;;;;;5.82;2.05;;;;;;;39.55;0.96;98153.50;5112060;28;20040;-72
2022/04/04 09:04:41;;;;;;;2.78;2.00;;;;;;;39.68;0.69;98154.78;5094856;28;20043;-73
2022/04/04 09:07:09;;;;;;;2.33;1.90;;;;;;;39.47;0.88;98155.41;5094666;28;20268;-72
2022/04/04 09:09:38;;;;;;;4.93;2.00;;;;;;;39.42;0.99;98144.66;5072039;28;20456;-75
2022/04/04 09:12:15;;;;;;;6.17;2.07;;;;;;;38.72;0.63;98143.81;5092892;28;20035;-74
2022/04/04 09:14:47;;;;;;;8.73;2.00;;;;;;;38.45;0.94;98142.25;5110368;28;20461;-74
2022/04/04 09:17:16;;;;;;;5.72;2.13;;;;;;;38.31;1.00;98137.31;5093897;28;20147;-73
2022/04/04 09:19:42;;;;;;;7.60;6.00;;;;;;;38.14;1.14;98139.84;5076531;28;20043;-77
2022/04/04 09:22:10;;;;;;;2.50;2.28;;;;;;;38.36;0.92;98139.78;5110315;28;20059;-77
2022/04/04 09:24:44;;;;;;;3.72;1.90;;;;;;;38.61;0.93;98137.34;5091693;28;20492;-75
2022/04/04 09:27:16;;;;;;;6.60;2.28;;;;;;;38.03;1.06;98142.44;5092664;28;20078;-71
2022/04/04 09:29:43;;;;;;;4.97;1.60;;;;;;;37.47;1.28;98140.72;5092852;28;20533;-68
2022/04/04 09:32:15;;;;;;;4.05;1.83;;;;;;;37.15;1.54;98146.44;5071627;28;20039;-68
2022/04/04 09:35:32;;;;;;;2.97;1.75;;;;;;;37.03;1.35;98143.03;5077060;28;20062;-67
2022/04/04 09:37:58;;;;;;;3.47;1.92;;;;;;;36.63;1.66;98129.59;4999154;28;20048;-72
2022/04/04 09:40:25;;;;;;;3.22;1.88;;;;;;;36.11;1.66;98139.47;4998754;28;20079;-72
2022/04/04 09:42:51;;;;;;;5.22;1.95;;;;;;;35.61;2.16;98118.94;5036494;28;20052;-72
2022/04/04 09:45:19;;;;;;;3.20;1.90;;;;;;;35.87;1.96;98140.53;5093250;28;20054;-72
2022/04/04 09:48:01;;;;;;;5.13;1.90;;;;;;;35.68;2.11;98132.94;5076482;28;20047;-73
2022/04/04 09:50:45;;;;;;;6.22;2.03;;;;;;;35.96;1.99;98145.84;5076267;28;20071;-74
2022/04/04 09:53:17;;;;;;;3.15;2.10;;;;;;;36.02;1.57;98127.81;5093649;28;20150;-74
2022/04/04 09:55:48;;;;;;;5.25;2.15;;;;;;;36.11;1.72;98145.00;5089070;28;20078;-75
2022/04/04 09:58:25;;;;;;;4.20;2.10;;;;;;;35.81;1.44;98097.72;5076453;28;20532;-73
2022/04/04 10:00:51;;;;;;;5.57;2.30;;;;;;;36.49;1.64;98145.88;5075862;28;20039;-72
2022/04/04 10:03:18;;;;;;;5.28;2.20;;;;;;;36.57;1.13;98130.22;5075615;28;20507;-75
2022/04/04 10:05:56;;;;;;;5.20;2.50;;;;;;;36.94;1.21;98148.00;5059241;28;20035;-76
2022/04/04 10:08:26;;;;;;;5.40;2.20;;;;;;;37.37;1.51;98142.13;5092496;28;20044;-75
2022/04/04 10:10:55;;;;;;;;;;;;;;;37.86;0.99;98137.41;5093297;28;20036;-73
2022/04/04 10:13:23;;;;;;;6.88;2.45;;;;;;;37.61;1.07;98138.19;5059321;28;19920;-73
2022/04/04 10:15:50;;;;;;;9.75;2.72;;;;;;;37.54;1.30;98141.63;5076341;28;20088;-74
2022/04/04 10:18:16;;;;;;;5.15;2.78;;;;;;;36.96;1.44;98149.25;5075532;28;20040;-73
2022/04/04 10:20:42;;;;;;;3.65;2.45;;;;;;;36.22;1.31;98135.78;5092065;28;20055;-75
2022/04/04 10:23:12;;;;;;;6.88;2.65;;;;;;;35.37;1.31;98134.91;5092041;28;20055;-73
2022/04/04 10:25:38;;;;;;;;;;;;;;;35.41;1.92;98136.59;5074523;28;20035;-73
2022/04/04 10:28:04;;;;;;;3.88;2.72;;;;;;;35.14;1.96;98142.97;5056712;28;19920;-80
2022/04/04 10:30:32;;;;;;;4.43;2.10;;;;;;;35.14;2.17;98137.44;5074012;28;20040;-73
2022/04/04 10:32:57;;;;;;;6.18;2.67;;;;;;;35.10;1.93;98131.03;5090657;28;20044;-72
2022/04/04 10:35:27;;;;;;;10.52;2.90;;;;;;;35.18;2.06;98123.72;5089693;28;20412;-72
2022/04/04 10:37:57;;;;;;;3.40;2.45;;;;;;;35.03;2.08;98130.03;5090700;28;20050;-74
2022/04/04 10:40:29;;;;;;;4.47;2.70;;;;;;;34.48;2.40;98113.47;5108370;28;20043;-73
2022/04/04 10:43:11;;;;;;;4.28;2.60;;;;;;;34.76;2.22;98128.06;5074631;28;20577;-72
2022/04/04 10:45:50;;;;;;;5.03;2.63;;;;;;;34.08;2.08;98128.03;5074554;28;20108;-72
2022/04/04 10:48:17;;;;;;;3.15;1.80;;;;;;;34.12;2.17;98119.88;5074861;28;20036;-73
2022/04/04 10:50:43;;;;;;;2.80;1.88;;;;;;;34.56;1.99;98120.78;5092269;28;20043;-74
2022/04/04 10:53:10;;;;;;;6.40;2.28;;;;;;;35.43;2.12;98122.41;5074940;28;20660;-73
2022/04/04 10:55:36;;;;;;;3.55;2.00;;;;;;;36.17;1.78;98124.19;5091189;28;20120;-73
2022/04/04 10:58:14;;;;;;;2.83;1.90;;;;;;;35.30;1.65;98121.69;5091536;28;20039;-73
2022/04/04 11:01:03;;;;;;;2.47;2.00;;;;;;;34.83;2.30;98120.78;5107662;28;20032;-74
2022/04/04 11:03:39;;;;;;;5.10;2.10;;;;;;;32.98;3.03;98118.41;5074405;28;20062;-73
2022/04/04 11:09:12;;;;;;;4.60;3.53;;;;;;;29.69;4.35;98111.53;5093771;28;20039;-71
2022/04/04 11:11:44;;;;;;;5.93;4.50;;;;;;;30.22;4.47;98104.72;5074444;28;20051;-74
2022/04/04 11:14:14;;;;;;;5.82;4.40;;;;;;;29.69;4.67;98101.41;5109420;28;20150;-74
2022/04/04 11:17:08;;;;;;;6.28;3.97;;;;;;;29.11;4.68;98109.03;5075769;28;20520;-74
2022/04/04 11:20:10;;;;;;;5.95;2.75;;;;;;;29.66;4.68;98101.25;5108773;28;20094;-74
2022/04/04 11:22:44;;;;;;;8.55;2.22;;;;;;;30.73;4.46;98112.09;5108009;28;20094;-75
2022/04/04 11:25:16;;;;;;;3.38;2.00;;;;;;;32.12;3.61;98097.16;5091182;28;20104;-75
2022/04/04 11:27:48;;;;;;;3.80;1.83;;;;;;;32.04;3.67;98108.22;5091016;28;20138;-75
2022/04/04 11:30:18;;;;;;;7.13;2.17;;;;;;;32.08;3.65;98104.47;5108419;28;20130;-78
2022/04/04 11:32:49;;;;;;;2.47;1.90;;;;;;;31.95;3.83;98093.75;5108592;28;20039;-74
2022/04/04 11:35:18;;;;;;;;;;;;;;;31.21;3.88;98115.38;5091656;28;20496;-73
2022/04/04 11:38:12;;;;;;;5.82;1.90;;;;;;;29.99;4.38;98105.16;5058156;28;19920;-74
2022/04/04 11:40:39;;;;;;;2.28;1.40;;;;;;;27.73;4.71;98091.88;5091345;28;20046;-73
2022/04/04 11:43:06;;;;;;;3.47;1.80;;;;;;;26.52;5.46;98099.56;5075107;28;20039;-73
2022/04/04 11:45:36;;;;;;;7.82;2.08;;;;;;;25.57;6.14;98103.69;5107461;28;20043;-72
2022/04/04 11:48:14;;;;;;;3.83;1.85;;;;;;;24.97;6.46;98098.13;5109597;28;20047;-75